Time;durP1;ratioP1;P1;durP2;ratioP2;P2;SDS_P1;SDS_P2;PMS_P1;PMS_P2;Temp;Humidity;BMP_temperature;BMP_pressure;BME280_temperature;BME280_humidity;BME280_pressure;Samples;Min_cycle;Max_cycle;Signal;HPM_P1;HPM_P2
2021/12/30 00:02:05;;;;;;;89.18;8.80;;;9.10;99.90;;;;;;5086848;28;20475;-69
2021/12/30 00:04:31;;;;;;;89.25;11.25;;;9.00;99.90;;;;;;5085636;28;20042;-71
2021/12/30 00:06:56;;;;;;;78.80;9.63;;;8.90;99.90;;;;;;5085500;28;20501;-74
2021/12/30 00:09:22;;;;;;;94.13;8.98;;;8.80;99.90;;;;;;5086612;28;20090;-69
2021/12/30 00:11:48;;;;;;;94.22;9.50;;;8.80;99.90;;;;;;5087174;28;20126;-71
2021/12/30 00:14:14;;;;;;;105.03;11.68;;;8.80;99.90;;;;;;5086493;28;20039;-68
2021/12/30 00:16:40;;;;;;;89.03;10.20;;;8.80;99.90;;;;;;5088130;28;20047;-70
2021/12/30 00:19:06;;;;;;;100.38;9.68;;;8.80;99.90;;;;;;5087050;28;20440;-70
2021/12/30 00:21:31;;;;;;;96.43;9.73;;;8.70;99.90;;;;;;5098480;28;20610;-71
2021/12/30 00:23:57;;;;;;;99.25;9.93;;;8.70;99.90;;;;;;5086441;28;20036;-69
2021/12/30 00:26:23;;;;;;;95.90;12.73;;;8.70;99.90;;;;;;5094269;28;20043;-69
2021/12/30 00:28:49;;;;;;;107.40;10.73;;;8.60;99.90;;;;;;5075850;28;20047;-71
2021/12/30 00:31:15;;;;;;;104.50;10.48;;;8.70;99.90;;;;;;5091532;28;20047;-68
2021/12/30 00:33:41;;;;;;;94.25;11.23;;;8.70;99.90;;;;;;5099538;28;20039;-67
2021/12/30 00:36:08;;;;;;;94.07;11.85;;;8.70;99.90;;;;;;5076384;28;20069;-71
2021/12/30 00:38:36;;;;;;;113.90;10.68;;;8.80;99.90;;;;;;5093078;28;20036;-73
2021/12/30 00:41:01;;;;;;;100.80;11.20;;;8.80;99.90;;;;;;5091069;28;20112;-72
2021/12/30 00:43:27;;;;;;;84.82;9.52;;;8.80;99.90;;;;;;5103549;28;20040;-71
2021/12/30 00:45:52;;;;;;;99.60;11.30;;;8.80;99.90;;;;;;5101860;28;20036;-69
2021/12/30 00:48:18;;;;;;;100.53;10.57;;;8.70;99.90;;;;;;5076987;28;20032;-71
2021/12/30 00:50:47;;;;;;;80.35;9.20;;;8.60;99.90;;;;;;5099613;28;20132;-69
2021/12/30 00:53:13;;;;;;;89.45;9.85;;;8.60;99.90;;;;;;5091232;28;20032;-70
2021/12/30 00:55:39;;;;;;;90.50;9.77;;;8.60;99.90;;;;;;5083896;28;20502;-71
2021/12/30 00:58:06;;;;;;;85.60;9.85;;;8.50;99.90;;;;;;5101377;28;20444;-70
2021/12/30 01:00:33;;;;;;;91.97;10.32;;;8.50;99.90;;;;;;5092546;28;20040;-72
2021/12/30 01:02:59;;;;;;;103.55;10.50;;;8.50;99.90;;;;;;5093907;28;20047;-70
2021/12/30 01:05:25;;;;;;;101.97;11.27;;;8.50;99.90;;;;;;5094279;28;20414;-69
2021/12/30 01:07:50;;;;;;;102.70;12.15;;;8.60;99.90;;;;;;5091788;28;20127;-74
2021/12/30 01:10:23;;;;;;;117.57;10.50;;;8.60;99.90;;;;;;5099533;28;20035;-71
2021/12/30 01:12:50;;;;;;;104.38;10.95;;;8.60;99.90;;;;;;5100446;28;20468;-69
2021/12/30 01:15:19;;;;;;;98.70;9.82;;;8.60;99.90;;;;;;5104322;28;20050;-69
2021/12/30 01:17:52;;;;;;;85.25;9.82;;;8.50;99.90;;;;;;5094318;28;20047;-71
2021/12/30 01:20:20;;;;;;;80.53;9.18;;;8.50;99.90;;;;;;5088523;28;20147;-72
2021/12/30 01:22:47;;;;;;;84.78;9.57;;;8.40;99.90;;;;;;5076976;28;20036;-70
2021/12/30 01:25:15;;;;;;;88.15;9.98;;;8.30;99.90;;;;;;5092541;28;20078;-71
2021/12/30 01:27:40;;;;;;;88.45;8.55;;;8.30;99.90;;;;;;5092676;28;20093;-69
2021/12/30 01:30:11;;;;;;;90.30;10.15;;;8.20;99.90;;;;;;5094454;28;20490;-71
2021/12/30 01:32:36;;;;;;;77.63;10.07;;;8.10;99.90;;;;;;5093928;28;20047;-70
2021/12/30 01:35:04;;;;;;;97.00;10.07;;;8.10;99.90;;;;;;5085999;28;20040;-71
2021/12/30 01:37:30;;;;;;;95.47;10.48;;;8.00;99.90;;;;;;5077735;28;20063;-71
2021/12/30 01:39:56;;;;;;;92.38;10.63;;;8.00;99.90;;;;;;5099737;28;20044;-69
2021/12/30 01:42:22;;;;;;;93.50;11.35;;;7.90;99.90;;;;;;5074394;28;20031;-71
2021/12/30 01:44:48;;;;;;;94.70;12.70;;;7.90;99.90;;;;;;5086475;28;20047;-69
2021/12/30 01:47:14;;;;;;;102.20;12.32;;;7.90;99.90;;;;;;5101137;28;20039;-73
2021/12/30 01:49:39;;;;;;;135.00;15.95;;;7.90;99.90;;;;;;5086665;28;20127;-68
2021/12/30 01:52:05;;;;;;;128.43;17.90;;;8.10;99.90;;;;;;5091236;28;20032;-73
2021/12/30 01:54:31;;;;;;;117.15;15.75;;;8.20;99.90;;;;;;5091268;28;20032;-70
2021/12/30 01:57:03;;;;;;;112.32;17.13;;;8.30;99.90;;;;;;5091773;28;20502;-73
2021/12/30 01:59:28;;;;;;;141.60;19.13;;;8.50;99.90;;;;;;5093233;28;20036;-74
2021/12/30 02:01:57;;;;;;;135.15;18.13;;;8.50;99.90;;;;;;5101614;28;20039;-70
2021/12/30 02:04:24;;;;;;;144.48;19.65;;;8.50;99.90;;;;;;5090773;28;20032;-74
2021/12/30 02:06:50;;;;;;;131.70;19.02;;;8.70;99.90;;;;;;5088597;28;20115;-70
2021/12/30 02:09:18;;;;;;;125.75;19.00;;;8.70;99.90;;;;;;5097015;28;20123;-69
2021/12/30 02:11:43;;;;;;;137.73;19.15;;;8.70;99.90;;;;;;5109200;28;20105;-69
2021/12/30 02:14:09;;;;;;;137.07;18.35;;;8.80;99.90;;;;;;5099077;28;20040;-71
2021/12/30 02:16:34;;;;;;;140.48;19.17;;;8.80;99.90;;;;;;5096030;28;20440;-73
2021/12/30 02:19:00;;;;;;;140.07;20.77;;;8.80;99.90;;;;;;5082944;28;20497;-71
2021/12/30 02:21:26;;;;;;;155.35;21.92;;;8.90;99.90;;;;;;5103657;28;20041;-72
2021/12/30 02:23:51;;;;;;;138.60;20.20;;;8.90;99.90;;;;;;5108942;28;20394;-73
2021/12/30 02:26:19;;;;;;;147.65;21.73;;;8.90;99.90;;;;;;5092955;28;20047;-69
2021/12/30 02:28:45;;;;;;;160.93;23.27;;;8.90;99.90;;;;;;5097355;28;20040;-69
2021/12/30 02:31:13;;;;;;;155.07;21.75;;;8.90;99.90;;;;;;5099361;28;20447;-72
2021/12/30 02:33:40;;;;;;;156.93;22.83;;;9.00;99.90;;;;;;5081115;28;20398;-74
2021/12/30 02:36:06;;;;;;;150.90;23.35;;;9.00;99.90;;;;;;5092359;28;20052;-74
2021/12/30 02:38:33;;;;;;;177.65;26.27;;;9.00;99.90;;;;;;5093609;28;20039;-72
2021/12/30 02:41:00;;;;;;;183.45;26.63;;;9.10;99.90;;;;;;5087665;28;20077;-72
2021/12/30 02:43:28;;;;;;;183.50;28.23;;;9.20;99.90;;;;;;5095496;28;20040;-72
2021/12/30 02:45:57;;;;;;;161.75;26.15;;;9.30;99.90;;;;;;5095057;28;20488;-70
2021/12/30 02:48:26;;;;;;;188.07;30.52;;;9.30;99.90;;;;;;5102143;28;20111;-71
2021/12/30 02:50:54;;;;;;;174.30;30.10;;;9.40;99.90;;;;;;5093844;28;20040;-69
2021/12/30 02:53:20;;;;;;;192.55;30.02;;;9.50;99.90;;;;;;5089632;28;20043;-74
2021/12/30 02:55:47;;;;;;;179.68;31.67;;;9.50;99.90;;;;;;5097144;28;20455;-73
2021/12/30 02:58:13;;;;;;;180.48;30.13;;;9.60;99.90;;;;;;5094522;28;20487;-73
2021/12/30 03:00:44;;;;;;;168.38;27.23;;;9.60;99.90;;;;;;5099378;28;20119;-73
2021/12/30 03:03:20;;;;;;;193.20;29.63;;;9.70;99.90;;;;;;5084990;28;20054;-71
2021/12/30 03:05:47;;;;;;;175.20;27.45;;;9.70;99.90;;;;;;5107975;28;20379;-74
2021/12/30 03:08:14;;;;;;;179.50;27.90;;;9.70;99.90;;;;;;5092287;28;20042;-75
2021/12/30 03:10:39;;;;;;;185.85;29.15;;;9.80;99.90;;;;;;5096527;28;20039;-73
2021/12/30 03:13:08;;;;;;;165.55;26.88;;;9.80;99.90;;;;;;5102202;28;20508;-71
2021/12/30 03:15:34;;;;;;;183.98;28.08;;;9.90;99.90;;;;;;5121126;27;20047;-72
2021/12/30 03:18:00;;;;;;;180.13;25.25;;;9.90;99.90;;;;;;5106311;28;20044;-73
2021/12/30 03:20:26;;;;;;;164.68;25.80;;;9.90;99.90;;;;;;5091234;28;20045;-71
2021/12/30 03:22:52;;;;;;;165.52;24.85;;;9.90;99.90;;;;;;5078112;28;20141;-71
2021/12/30 03:25:17;;;;;;;149.80;23.88;;;9.90;99.90;;;;;;5089882;28;20055;-70
2021/12/30 03:27:44;;;;;;;136.55;23.45;;;9.90;99.90;;;;;;5094786;28;20115;-72
2021/12/30 03:30:13;;;;;;;140.95;23.67;;;9.90;99.90;;;;;;5088516;28;20040;-70
2021/12/30 03:32:39;;;;;;;161.65;22.88;;;9.90;99.90;;;;;;5089361;28;20044;-72
2021/12/30 03:35:06;;;;;;;155.65;23.30;;;9.90;99.90;;;;;;5077469;28;20094;-70
2021/12/30 03:37:32;;;;;;;174.18;25.10;;;9.90;99.90;;;;;;5085206;28;20119;-69
2021/12/30 03:39:58;;;;;;;154.30;22.48;;;9.90;99.90;;;;;;5083837;28;20476;-73
2021/12/30 03:42:24;;;;;;;150.18;23.45;;;9.90;99.90;;;;;;5096028;28;20119;-76
2021/12/30 03:44:49;;;;;;;141.80;22.92;;;9.90;99.90;;;;;;5089946;28;20151;-73
2021/12/30 03:47:18;;;;;;;146.85;22.23;;;9.90;99.90;;;;;;5096929;28;20058;-73
2021/12/30 03:49:45;;;;;;;155.13;23.90;;;9.90;99.90;;;;;;5092683;28;20119;-73
2021/12/30 03:52:20;;;;;;;127.07;22.90;;;10.00;99.90;;;;;;5091295;28;20028;-76
2021/12/30 03:54:47;;;;;;;146.05;23.17;;;10.00;99.90;;;;;;5089307;28;20471;-73
2021/12/30 03:57:15;;;;;;;151.88;24.40;;;10.00;99.90;;;;;;5071750;28;20028;-74
2021/12/30 03:59:40;;;;;;;148.50;23.38;;;10.00;99.90;;;;;;5088215;28;20454;-71
2021/12/30 04:02:06;;;;;;;164.93;23.02;;;10.00;99.90;;;;;;5083599;28;20028;-73
2021/12/30 04:04:31;;;;;;;163.00;24.13;;;10.10;99.90;;;;;;5086019;28;20028;-72
2021/12/30 04:06:57;;;;;;;162.13;23.88;;;10.10;99.90;;;;;;5093658;28;20029;-73
2021/12/30 04:09:23;;;;;;;159.88;24.15;;;10.10;99.90;;;;;;5073127;28;20402;-74
2021/12/30 04:11:48;;;;;;;163.10;25.15;;;10.10;99.90;;;;;;5099329;28;20047;-76
2021/12/30 04:14:14;;;;;;;212.80;26.13;;;10.20;99.90;;;;;;5096119;28;20039;-72
2021/12/30 04:16:40;;;;;;;195.77;27.10;;;10.20;99.90;;;;;;5092346;28;20478;-71
2021/12/30 04:19:06;;;;;;;186.90;27.10;;;10.20;99.90;;;;;;5074707;28;20047;-71
2021/12/30 04:21:32;;;;;;;194.48;27.08;;;10.20;99.90;;;;;;5079245;28;20036;-71
2021/12/30 04:23:57;;;;;;;192.23;27.02;;;10.30;99.90;;;;;;5091420;28;20047;-70
2021/12/30 04:26:23;;;;;;;198.27;27.98;;;10.30;99.90;;;;;;5088048;28;20036;-75
2021/12/30 04:28:49;;;;;;;157.25;27.42;;;10.30;99.90;;;;;;5090859;28;20040;-75
2021/12/30 04:31:15;;;;;;;167.52;28.75;;;10.30;99.90;;;;;;5087933;28;20036;-74
2021/12/30 04:33:41;;;;;;;155.68;27.42;;;10.40;99.90;;;;;;5097836;28;20048;-73
2021/12/30 04:36:07;;;;;;;147.52;26.77;;;10.40;99.90;;;;;;5087750;28;20485;-69
2021/12/30 04:38:34;;;;;;;158.18;28.40;;;10.40;99.90;;;;;;5089542;28;20036;-73
2021/12/30 04:41:00;;;;;;;164.10;26.67;;;10.40;99.90;;;;;;5100706;28;20041;-73
2021/12/30 04:43:26;;;;;;;147.75;27.38;;;10.40;99.90;;;;;;5104356;28;20046;-73
2021/12/30 04:45:52;;;;;;;151.13;26.58;;;10.50;99.90;;;;;;5071682;28;20048;-71
2021/12/30 04:48:19;;;;;;;143.15;25.83;;;10.50;99.90;;;;;;5096943;28;20340;-66
2021/12/30 04:50:45;;;;;;;147.32;25.80;;;10.60;99.90;;;;;;5091374;28;20097;-69
2021/12/30 04:53:16;;;;;;;166.35;26.75;;;10.60;99.90;;;;;;5083304;28;20386;-68
2021/12/30 04:55:41;;;;;;;165.60;27.10;;;10.60;99.90;;;;;;5071007;28;20036;-71
2021/12/30 04:58:07;;;;;;;143.95;25.92;;;10.60;99.90;;;;;;5087778;28;20036;-73
2021/12/30 05:00:34;;;;;;;164.55;28.55;;;10.70;99.90;;;;;;5091517;28;20313;-67
2021/12/30 05:05:25;;;;;;;185.70;31.90;;;10.70;99.90;;;;;;5086783;28;20407;-70
2021/12/30 05:07:50;;;;;;;175.63;31.27;;;10.80;99.90;;;;;;5102732;28;20505;-69
2021/12/30 05:10:16;;;;;;;187.23;31.40;;;10.80;99.90;;;;;;5089562;28;20158;-72
2021/12/30 05:12:41;;;;;;;217.70;35.53;;;10.80;99.90;;;;;;5091603;28;20047;-71
2021/12/30 05:15:07;;;;;;;228.48;37.65;;;10.80;99.90;;;;;;5091746;28;20051;-70
2021/12/30 05:17:35;;;;;;;196.80;33.40;;;10.80;99.90;;;;;;5092140;28;20048;-69
2021/12/30 05:20:00;;;;;;;225.13;37.63;;;10.80;99.90;;;;;;5087211;28;20441;-72
2021/12/30 05:22:26;;;;;;;234.80;35.00;;;10.90;99.90;;;;;;5091780;28;20032;-66
2021/12/30 05:24:52;;;;;;;254.23;37.55;;;10.90;99.90;;;;;;5104163;28;20040;-70
2021/12/30 05:27:19;;;;;;;261.95;38.97;;;11.00;99.90;;;;;;5086000;28;20036;-71
2021/12/30 05:29:46;;;;;;;248.95;38.38;;;11.00;99.90;;;;;;5089896;28;20040;-69
2021/12/30 05:32:11;;;;;;;243.18;37.80;;;11.00;99.90;;;;;;5092145;28;20376;-71
2021/12/30 05:34:37;;;;;;;269.25;37.45;;;11.00;99.90;;;;;;5085915;28;20051;-71
2021/12/30 05:37:03;;;;;;;286.52;43.20;;;11.00;99.90;;;;;;5093421;28;20039;-70
2021/12/30 05:39:29;;;;;;;297.08;40.38;;;11.10;99.90;;;;;;5097977;28;20038;-71
2021/12/30 05:41:55;;;;;;;294.27;40.80;;;11.10;99.90;;;;;;5094097;28;20089;-71
2021/12/30 05:44:21;;;;;;;287.90;38.75;;;11.10;99.90;;;;;;5091203;28;20035;-74
2021/12/30 05:46:46;;;;;;;272.52;36.85;;;11.10;99.90;;;;;;5091035;28;20038;-74
2021/12/30 05:49:12;;;;;;;287.38;41.15;;;11.10;99.90;;;;;;5074529;28;20063;-70
2021/12/30 05:51:37;;;;;;;293.48;38.88;;;11.20;99.90;;;;;;5084262;28;20472;-69
2021/12/30 05:54:03;;;;;;;305.70;40.03;;;11.20;99.90;;;;;;5096744;28;20042;-70
2021/12/30 05:56:29;;;;;;;291.25;42.30;;;11.20;99.90;;;;;;5086421;28;20044;-74
2021/12/30 05:58:54;;;;;;;273.40;37.22;;;11.20;99.90;;;;;;5080599;28;20033;-72
2021/12/30 06:01:20;;;;;;;289.30;38.42;;;11.30;99.90;;;;;;5074475;28;20040;-73
2021/12/30 06:03:46;;;;;;;260.20;36.72;;;11.30;99.90;;;;;;5101419;28;20134;-71
2021/12/30 06:06:11;;;;;;;285.02;35.42;;;11.30;99.90;;;;;;5108402;28;20035;-72
2021/12/30 06:08:37;;;;;;;264.90;34.40;;;11.30;99.90;;;;;;5087132;28;20078;-68
2021/12/30 06:11:03;;;;;;;247.98;36.00;;;11.30;99.90;;;;;;5074262;28;20032;-68
2021/12/30 06:13:28;;;;;;;266.58;34.60;;;11.40;99.90;;;;;;5089868;28;20433;-67
2021/12/30 06:15:54;;;;;;;288.00;36.25;;;11.40;99.90;;;;;;5091007;28;20032;-71
2021/12/30 06:18:19;;;;;;;254.63;35.10;;;11.40;99.90;;;;;;5091375;28;20043;-68
2021/12/30 06:20:45;;;;;;;229.38;31.80;;;11.40;99.90;;;;;;5097130;28;20044;-69
2021/12/30 06:23:11;;;;;;;226.45;34.40;;;11.40;99.90;;;;;;5100705;28;20037;-69
2021/12/30 06:25:36;;;;;;;248.52;33.83;;;11.40;99.90;;;;;;5092688;28;20041;-71
2021/12/30 06:28:02;;;;;;;209.40;30.55;;;11.40;99.90;;;;;;5115512;27;20033;-68
2021/12/30 06:30:28;;;;;;;200.27;30.08;;;11.40;99.90;;;;;;5090090;28;20048;-69
2021/12/30 06:32:53;;;;;;;214.20;31.65;;;11.40;99.90;;;;;;5089866;28;20036;-70
2021/12/30 06:35:19;;;;;;;211.30;31.50;;;11.40;99.90;;;;;;5105814;28;20032;-74
2021/12/30 06:37:44;;;;;;;198.50;32.25;;;11.50;99.90;;;;;;5087720;28;20040;-70
2021/12/30 06:40:12;;;;;;;189.73;31.15;;;11.50;99.90;;;;;;5099015;28;20406;-69
2021/12/30 06:42:41;;;;;;;197.68;29.42;;;11.50;99.90;;;;;;5081001;28;20499;-68
2021/12/30 06:45:07;;;;;;;185.50;29.58;;;11.50;99.90;;;;;;5071733;28;20448;-66
2021/12/30 06:47:33;;;;;;;142.68;25.80;;;11.50;99.90;;;;;;5090990;28;20044;-70
2021/12/30 06:50:01;;;;;;;163.55;26.40;;;11.50;99.90;;;;;;5089229;28;20498;-68
2021/12/30 06:52:28;;;;;;;136.27;23.35;;;11.50;99.90;;;;;;5083927;28;20066;-71
2021/12/30 06:54:54;;;;;;;131.98;22.20;;;11.50;99.90;;;;;;5090175;28;20038;-70
2021/12/30 06:57:19;;;;;;;100.57;20.40;;;11.50;99.90;;;;;;5079664;28;20398;-73
2021/12/30 06:59:46;;;;;;;99.40;18.45;;;11.50;99.90;;;;;;5090082;28;20067;-66
2021/12/30 07:02:11;;;;;;;108.88;18.42;;;11.50;99.90;;;;;;5090489;28;20364;-71
2021/12/30 07:04:38;;;;;;;80.75;15.30;;;11.50;99.90;;;;;;5091134;28;20043;-71
2021/12/30 07:07:04;;;;;;;62.33;13.18;;;11.50;99.90;;;;;;5070204;28;20046;-69
2021/12/30 07:09:30;;;;;;;72.10;12.50;;;11.50;99.90;;;;;;5090362;28;20483;-69
2021/12/30 07:11:55;;;;;;;40.60;8.77;;;11.50;99.90;;;;;;5099996;28;20055;-67
2021/12/30 07:14:22;;;;;;;44.25;10.07;;;11.50;99.90;;;;;;5082825;28;20043;-71
2021/12/30 07:16:48;;;;;;;39.75;7.88;;;11.50;99.90;;;;;;5093453;28;20036;-69
2021/12/30 07:19:14;;;;;;;30.33;7.40;;;11.50;99.90;;;;;;5091475;28;20089;-71
2021/12/30 07:21:40;;;;;;;25.60;6.90;;;11.50;99.90;;;;;;5090055;28;20518;-72
2021/12/30 07:24:06;;;;;;;29.02;7.38;;;11.50;99.90;;;;;;5072812;28;20032;-72
2021/12/30 07:26:31;;;;;;;30.75;6.85;;;11.50;99.90;;;;;;5096698;28;20380;-68
2021/12/30 07:28:57;;;;;;;25.05;6.72;;;11.60;99.90;;;;;;5079131;28;20046;-67
2021/12/30 07:31:22;;;;;;;28.58;8.27;;;11.60;99.90;;;;;;5089920;28;20043;-73
2021/12/30 07:33:48;;;;;;;36.55;8.75;;;11.50;99.90;;;;;;5096328;28;20046;-69
2021/12/30 07:36:13;;;;;;;30.52;8.43;;;11.60;99.90;;;;;;5096747;28;20035;-70
2021/12/30 07:38:39;;;;;;;39.85;11.15;;;11.60;99.90;;;;;;5088541;28;20048;-71
2021/12/30 07:41:05;;;;;;;40.40;11.23;;;11.60;99.90;;;;;;5088112;28;20086;-74
2021/12/30 07:43:31;;;;;;;49.75;11.88;;;11.60;99.90;;;;;;5094495;28;20036;-71
2021/12/30 07:46:00;;;;;;;43.55;12.82;;;11.60;99.90;;;;;;5087592;28;20040;-71
2021/12/30 07:48:26;;;;;;;52.45;12.82;;;11.60;99.90;;;;;;5087946;28;20417;-69
2021/12/30 07:50:52;;;;;;;55.97;13.77;;;11.70;99.90;;;;;;5072615;28;20028;-67
2021/12/30 07:53:18;;;;;;;74.63;16.63;;;11.70;99.90;;;;;;5090254;28;20028;-68
2021/12/30 07:55:43;;;;;;;70.78;15.68;;;11.70;99.90;;;;;;5098831;28;20482;-70
2021/12/30 07:58:09;;;;;;;59.78;14.15;;;11.70;99.90;;;;;;5094406;28;20478;-67
2021/12/30 08:00:34;;;;;;;53.28;13.77;;;11.70;99.90;;;;;;5103080;28;20410;-72
2021/12/30 08:03:00;;;;;;;60.45;15.43;;;11.70;99.90;;;;;;5088753;28;20032;-75
2021/12/30 08:05:28;;;;;;;76.45;17.92;;;11.80;99.90;;;;;;5072705;28;20073;-72
2021/12/30 08:07:54;;;;;;;78.75;17.20;;;11.70;99.90;;;;;;5088521;28;20077;-69
2021/12/30 08:10:20;;;;;;;82.90;18.58;;;11.80;99.90;;;;;;5102933;28;20031;-73
2021/12/30 08:12:48;;;;;;;105.78;22.25;;;11.80;99.90;;;;;;5087919;28;20111;-70
2021/12/30 08:15:15;;;;;;;98.18;23.90;;;11.80;99.90;;;;;;5087624;28;20078;-69
2021/12/30 08:17:42;;;;;;;106.72;23.10;;;11.90;99.90;;;;;;5089958;28;20475;-74
2021/12/30 08:20:09;;;;;;;97.45;22.75;;;11.90;99.90;;;;;;5088654;28;20044;-73
2021/12/30 08:22:35;;;;;;;102.13;27.27;;;12.00;99.90;;;;;;5090204;28;20043;-67
2021/12/30 08:25:01;;;;;;;95.25;24.65;;;12.00;99.90;;;;;;5077608;28;20434;-73
2021/12/30 08:27:27;;;;;;;97.35;25.25;;;12.00;99.90;;;;;;5078589;28;20064;-71
2021/12/30 08:29:52;;;;;;;87.00;26.77;;;12.10;99.90;;;;;;5088331;28;20038;-70
2021/12/30 08:32:18;;;;;;;70.70;21.52;;;12.20;99.90;;;;;;5070397;28;20032;-72
2021/12/30 08:34:45;;;;;;;76.20;21.23;;;12.20;99.90;;;;;;5072156;28;20087;-70
2021/12/30 08:37:12;;;;;;;65.70;23.42;;;12.20;99.90;;;;;;5086115;28;20028;-68
2021/12/30 08:39:41;;;;;;;71.68;20.80;;;12.30;99.90;;;;;;5087623;28;20043;-71
2021/12/30 08:42:20;;;;;;;70.93;18.58;;;12.30;99.90;;;;;;5084796;28;20047;-68
2021/12/30 08:44:47;;;;;;;58.83;19.55;;;12.30;99.90;;;;;;5084500;28;20174;-74
2021/12/30 08:47:14;;;;;;;61.50;19.20;;;12.40;99.90;;;;;;5098212;28;20036;-74
2021/12/30 08:49:44;;;;;;;57.70;18.02;;;12.40;99.90;;;;;;5085936;28;20047;-75
2021/12/30 08:52:10;;;;;;;61.90;20.25;;;12.40;99.90;;;;;;5093508;28;20043;-73
2021/12/30 08:54:36;;;;;;;54.83;17.50;;;12.40;99.90;;;;;;5091937;28;20032;-71
2021/12/30 08:57:04;;;;;;;51.20;15.13;;;12.40;99.90;;;;;;5077687;28;20119;-72
2021/12/30 08:59:29;;;;;;;62.00;16.95;;;12.40;99.90;;;;;;5095814;28;20036;-69
2021/12/30 09:01:55;;;;;;;54.88;18.45;;;12.40;99.90;;;;;;5087210;28;20388;-76
2021/12/30 09:04:21;;;;;;;54.22;15.73;;;12.40;99.90;;;;;;5092636;28;20134;-74
2021/12/30 09:06:46;;;;;;;64.00;17.90;;;12.40;99.90;;;;;;5093760;28;20044;-72
2021/12/30 09:09:12;;;;;;;71.50;21.88;;;12.40;99.90;;;;;;5092361;28;20040;-73
2021/12/30 09:11:38;;;;;;;66.47;24.45;;;12.40;99.90;;;;;;5089218;28;20114;-70
2021/12/30 09:14:03;;;;;;;74.63;22.83;;;12.40;99.90;;;;;;5091406;28;20121;-74
2021/12/30 09:16:29;;;;;;;79.78;23.30;;;12.40;99.90;;;;;;5097717;28;20763;-70
2021/12/30 09:18:55;;;;;;;81.20;28.27;;;12.40;99.90;;;;;;5086948;28;20437;-73
2021/12/30 09:21:20;;;;;;;79.03;25.50;;;12.40;99.90;;;;;;5079364;28;20039;-68
2021/12/30 09:23:46;;;;;;;72.03;28.65;;;12.40;99.90;;;;;;5102691;27;20122;-70
2021/12/30 09:26:11;;;;;;;80.70;27.63;;;12.40;99.90;;;;;;5092112;28;20036;-77
2021/12/30 09:28:37;;;;;;;78.57;26.10;;;12.50;99.90;;;;;;5071197;28;20035;-72
2021/12/30 09:31:02;;;;;;;80.22;28.33;;;12.40;99.90;;;;;;5104234;28;20051;-68
2021/12/30 09:33:28;;;;;;;89.07;30.30;;;12.50;99.90;;;;;;5090849;28;20040;-74
2021/12/30 09:35:53;;;;;;;68.45;24.17;;;12.50;99.90;;;;;;5089375;28;20048;-73
2021/12/30 09:38:20;;;;;;;75.25;25.10;;;12.50;99.90;;;;;;5081686;28;20036;-69
2021/12/30 09:40:46;;;;;;;81.65;28.77;;;12.50;99.90;;;;;;5086205;28;20079;-77
2021/12/30 09:43:12;;;;;;;73.60;23.70;;;12.40;99.90;;;;;;5099153;28;20071;-76
2021/12/30 09:45:40;;;;;;;71.05;20.98;;;12.40;99.90;;;;;;5083877;28;20044;-70
2021/12/30 09:48:09;;;;;;;73.35;24.42;;;12.40;99.90;;;;;;5090075;28;20047;-72
2021/12/30 09:50:38;;;;;;;77.28;23.20;;;12.40;99.90;;;;;;5089156;28;20555;-72
2021/12/30 09:53:04;;;;;;;83.95;26.67;;;12.40;99.90;;;;;;5088949;28;20074;-69
2021/12/30 09:55:31;;;;;;;77.80;24.00;;;12.40;99.90;;;;;;5089824;28;20067;-73
2021/12/30 09:57:57;;;;;;;63.08;23.60;;;12.40;99.90;;;;;;5081993;28;20040;-70
2021/12/30 10:00:23;;;;;;;75.03;23.70;;;12.40;99.90;;;;;;5089127;28;20062;-72
2021/12/30 10:02:50;;;;;;;66.75;23.50;;;12.40;99.90;;;;;;5089845;28;20055;-75
2021/12/30 10:05:19;;;;;;;72.10;24.00;;;12.40;99.90;;;;;;5065749;28;20047;-72
2021/12/30 10:07:46;;;;;;;64.55;19.02;;;12.50;99.90;;;;;;5086889;28;20537;-75
2021/12/30 10:10:32;;;;;;;73.93;22.75;;;12.50;99.90;;;;;;5084836;28;20036;-72
2021/12/30 10:12:59;;;;;;;73.95;21.67;;;12.50;99.90;;;;;;5093663;28;20127;-68
2021/12/30 10:15:28;;;;;;;69.05;21.70;;;12.50;99.90;;;;;;5095715;28;20814;-67
2021/12/30 10:17:59;;;;;;;75.30;19.88;;;12.50;99.90;;;;;;5092453;28;20036;-71
2021/12/30 10:20:28;;;;;;;61.58;18.50;;;12.50;99.90;;;;;;5087694;28;20036;-69
2021/12/30 10:23:12;;;;;;;70.30;18.05;;;12.50;99.90;;;;;;5090590;28;20123;-70
2021/12/30 10:25:44;;;;;;;68.68;18.50;;;12.50;99.90;;;;;;5085989;28;20040;-67
2021/12/30 10:28:33;;;;;;;68.82;17.77;;;12.50;99.90;;;;;;5094985;28;20110;-71
2021/12/30 10:31:10;;;;;;;61.97;16.88;;;12.50;99.90;;;;;;5093246;28;20036;-73
2021/12/30 10:33:37;;;;;;;73.75;17.48;;;12.50;99.90;;;;;;5088276;28;20483;-72
2021/12/30 10:36:18;;;;;;;83.93;19.40;;;12.50;99.90;;;;;;5088022;28;20048;-69
2021/12/30 10:38:43;;;;;;;79.20;20.55;;;12.50;99.90;;;;;;5070681;28;20054;-73
2021/12/30 10:41:09;;;;;;;72.75;19.92;;;12.40;99.90;;;;;;5076166;28;20036;-68
2021/12/30 10:43:46;;;;;;;78.90;19.85;;;12.50;99.90;;;;;;5097473;28;20757;-72
2021/12/30 10:46:17;;;;;;;83.25;21.70;;;12.40;99.90;;;;;;5088786;28;20506;-74
2021/12/30 10:49:00;;;;;;;85.67;20.37;;;12.50;99.90;;;;;;5070117;28;20543;-68
2021/12/30 10:51:48;;;;;;;110.30;22.15;;;12.50;99.90;;;;;;5089027;28;20044;-75
2021/12/30 10:54:14;;;;;;;90.55;22.55;;;12.50;99.90;;;;;;5086261;28;20050;-71
2021/12/30 10:56:42;;;;;;;79.43;19.25;;;12.50;99.90;;;;;;5091355;28;20643;-77
2021/12/30 10:59:09;;;;;;;96.55;21.10;;;12.50;99.90;;;;;;5093957;28;20301;-73
2021/12/30 11:01:48;;;;;;;104.78;22.17;;;12.50;99.90;;;;;;5085107;28;20051;-72
2021/12/30 11:04:15;;;;;;;125.13;21.65;;;12.50;99.90;;;;;;5097980;28;20092;-73
2021/12/30 11:06:41;;;;;;;110.30;20.88;;;12.50;99.90;;;;;;5075619;28;20108;-70
2021/12/30 11:09:16;;;;;;;76.38;16.83;;;12.40;99.90;;;;;;5087523;28;20039;-72
2021/12/30 11:12:03;;;;;;;99.03;21.05;;;12.40;99.90;;;;;;5087770;28;20475;-73
2021/12/30 11:14:32;;;;;;;96.75;22.30;;;12.40;99.90;;;;;;5068352;28;20044;-72
2021/12/30 11:17:06;;;;;;;107.32;19.83;;;12.40;99.90;;;;;;5092417;28;20036;-73
2021/12/30 11:19:35;;;;;;;97.88;16.45;;;12.40;99.90;;;;;;5086747;28;20048;-72
2021/12/30 11:22:07;;;;;;;109.82;18.30;;;12.40;99.90;;;;;;5073782;28;20045;-74
2021/12/30 11:24:33;;;;;;;99.43;20.00;;;12.40;99.90;;;;;;5086126;28;20032;-69
2021/12/30 11:26:59;;;;;;;87.05;16.75;;;12.40;99.90;;;;;;5089747;28;20454;-75
2021/12/30 11:29:25;;;;;;;98.38;16.60;;;12.40;99.90;;;;;;5088982;28;20736;-72
2021/12/30 11:31:51;;;;;;;82.13;14.57;;;12.50;99.90;;;;;;5084786;28;20032;-74
2021/12/30 11:34:21;;;;;;;74.88;13.32;;;12.50;99.90;;;;;;5090352;28;20585;-70
2021/12/30 11:36:46;;;;;;;92.53;15.88;;;12.50;99.90;;;;;;5087651;28;20048;-72
2021/12/30 11:39:16;;;;;;;68.18;12.77;;;12.50;99.90;;;;;;5081168;28;20036;-74
2021/12/30 11:41:45;;;;;;;81.63;12.85;;;12.50;99.90;;;;;;5095253;28;20072;-66
2021/12/30 11:44:49;;;;;;;79.07;11.80;;;12.50;99.90;;;;;;5095719;28;20035;-73
2021/12/30 11:47:34;;;;;;;55.03;10.98;;;12.50;99.90;;;;;;5084301;28;20043;-67
2021/12/30 11:50:15;;;;;;;68.28;11.52;;;12.50;99.90;;;;;;5099214;28;20032;-71
2021/12/30 11:52:53;;;;;;;58.50;11.57;;;12.60;99.90;;;;;;5097556;28;20090;-70
2021/12/30 11:55:46;;;;;;;72.18;10.80;;;12.60;99.90;;;;;;5088769;28;20042;-69
2021/12/30 11:58:40;;;;;;;75.43;12.30;;;12.60;99.90;;;;;;5098440;28;20070;-73
2021/12/30 12:01:27;;;;;;;66.95;11.10;;;12.60;99.90;;;;;;5073002;28;20389;-68
2021/12/30 12:03:53;;;;;;;66.88;11.80;;;12.70;99.90;;;;;;5087024;28;20446;-70
2021/12/30 12:06:25;;;;;;;65.72;11.93;;;12.70;99.90;;;;;;5097557;28;20119;-67
2021/12/30 12:09:09;;;;;;;70.13;11.45;;;12.70;99.90;;;;;;5090644;28;20491;-75
2021/12/30 12:11:41;;;;;;;56.58;10.23;;;12.70;99.90;;;;;;5086403;28;20042;-70
2021/12/30 12:14:23;;;;;;;70.05;11.65;;;12.70;99.90;;;;;;5083473;28;20048;-75
2021/12/30 12:16:50;;;;;;;53.85;10.55;;;12.70;99.90;;;;;;5085128;28;20040;-72
2021/12/30 12:19:21;;;;;;;61.90;10.48;;;12.70;99.90;;;;;;5091352;28;20051;-70
2021/12/30 12:21:53;;;;;;;63.45;11.60;;;12.70;99.90;;;;;;5086031;28;20052;-69
2021/12/30 12:24:32;;;;;;;61.70;11.00;;;12.70;99.90;;;;;;5089946;28;21379;-73
2021/12/30 12:27:21;;;;;;;53.38;10.23;;;12.70;99.90;;;;;;5067384;28;20039;-72
2021/12/30 12:29:49;;;;;;;63.10;10.60;;;12.70;99.90;;;;;;5057345;28;20079;-71
2021/12/30 12:32:20;;;;;;;68.28;9.82;;;12.70;99.90;;;;;;5082502;28;20047;-71